world map with EFOU marked

EFOU - Airport

This information may not be accurate or current and is not valid for navigation or flight planning. No warranty of fitness for any purpose is made or implied.

flag of Finland

Donate via PayPal

Additional information is available on the NEW Great Circle Mapper

Location
City:  Oulu, Pohjois-Pohjanmaa (Norra Österbotten;Northern Ostrobothnia), Finland
ICAO / IATA:EFOU / OUL

Details
Type:Airport (Aerodrome, Airfield)
Latitude:64°55'45"N (64.929167)
Longitude:25°21'20"E (25.355556)
Elevation:47 ft (14 m)
Runways:1
Longest:8205 × 197 ft (2501 × 60 m)

Time
Timezone:UTC+2 (DST+5)
Local Time:

Weather
METAR:EFOU  161850Z AUTO VRB02KT 6000 -SN OVC006/// M12/M13 Q0991
TAF:EFOU  161728Z 1618/1718 28003KT 9000 SCT007 TEMPO 1618/1718 2000 -SN BKN003

Related Locations
Nearby:
Farthest:NZTB: 11272 mi / 18141 km
Terra Nova Bay [Mario Zucchelli Station], AQ

Find:

   beyond  
but within

Other Information
Maps:
Sources:

  


 


Great Circle Mapper   Great Circle Mapper
Great Circle Mapper FAQ   Great Circle Mapper FAQ
  Karl's Home Page
KLS˛   KLS˛ Home
   GC on Facebook
Airlines of the World   Airlines of the World
Donate via PayPal


Copyright © 2004-2019, Karl L. Swartz. All rights reserved.
All trademarks mentioned herein belong to their respective owners.

Please see credits for attribution and copyright information.

Karl Swartz <karl@kls2.com>
  Powered by FreeBSD
Valid HTML 4.01!
Labeled with ICRA
hCard Microformat
Geo Microformat